Time,TemperatureF,DewpointF,PressureIn,WindDirection,WindDirectionDegrees,WindSpeedMPH,WindSpeedGustMPH,Humidity,HourlyPrecipIn,Conditions,Clouds,dailyrainin,SoftwareType,DateUTC
2013-10-07 00:04:00,62.0,61.0,29.86,South,181,5.0,-999.0,97,-99.99,,,-99.99,,2013-10-07 04:04:00,
2013-10-07 00:13:00,62.0,61.0,29.86,South,181,5.0,-999.0,97,-99.99,,,-99.99,,2013-10-07 04:13:00,
2013-10-07 00:24:00,63.0,62.0,29.85,ENE,68,5.0,-999.0,96,-99.99,,,-99.99,,2013-10-07 04:24:00,
2013-10-07 00:34:00,63.0,62.0,29.85,ENE,68,5.0,-999.0,96,-99.99,,,-99.99,,2013-10-07 04:34:00,
2013-10-07 00:44:00,63.0,62.0,29.85,ENE,68,5.0,-999.0,96,-99.99,,,-99.99,,2013-10-07 04:44:00,
2013-10-07 00:53:00,63.0,62.0,29.83,South,181,4.0,-999.0,96,-99.99,,,-99.99,,2013-10-07 04:53:00,
2013-10-07 01:03:00,63.0,62.0,29.83,South,181,4.0,-999.0,96,-99.99,,,-99.99,,2013-10-07 05:03:00,
2013-10-07 01:23:00,64.0,62.0,29.82,West,264,4.0,-999.0,94,-99.99,,,-99.99,,2013-10-07 05:23:00,
2013-10-07 01:34:00,64.0,62.0,29.82,West,264,4.0,-999.0,94,-99.99,,,-99.99,,2013-10-07 05:34:00,
2013-10-07 01:43:00,64.0,62.0,29.82,West,264,4.0,-999.0,94,-99.99,,,-99.99,,2013-10-07 05:43:00,
2013-10-07 01:52:00,63.0,62.0,29.82,SSW,194,2.0,-999.0,95,-99.99,,,-99.99,,2013-10-07 05:52:00,
2013-10-07 02:03:00,63.0,62.0,29.82,SSW,194,2.0,-999.0,95,-99.99,,,-99.99,,2013-10-07 06:03:00,
2013-10-07 02:22:00,63.0,62.0,29.81,SSW,193,2.0,-999.0,96,-99.99,,,-99.99,,2013-10-07 06:22:00,
2013-10-07 02:32:00,63.0,62.0,29.81,SSW,193,2.0,-999.0,96,-99.99,,,-99.99,,2013-10-07 06:32:00,
2013-10-07 02:42:00,63.0,62.0,29.81,SSW,193,2.0,-999.0,96,-99.99,,,-99.99,,2013-10-07 06:42:00,
2013-10-07 02:53:00,63.0,62.0,29.81,WNW,303,3.0,-999.0,96,-99.99,,,-99.99,,2013-10-07 06:53:00,
2013-10-07 03:01:00,63.0,62.0,29.81,WNW,303,3.0,-999.0,96,-99.99,,,-99.99,,2013-10-07 07:01:00,
2013-10-07 03:02:00,63.0,62.0,29.80,South,190,3.0,-999.0,97,-99.99,,,-99.99,,2013-10-07 07:02:00,
2013-10-07 03:22:00,63.0,62.0,29.80,South,190,3.0,-999.0,97,-99.99,,,-99.99,,2013-10-07 07:22:00,
2013-10-07 03:32:00,63.0,62.0,29.80,South,190,3.0,-999.0,97,-99.99,,,-99.99,,2013-10-07 07:32:00,
2013-10-07 03:42:00,63.0,62.0,29.80,South,190,3.0,-999.0,97,-99.99,,,-99.99,,2013-10-07 07:42:00,
2013-10-07 03:52:00,63.0,62.0,29.80,South,190,3.0,-999.0,97,-99.99,,,-99.99,,2013-10-07 07:52:00,
2013-10-07 09:22:00,59.0,58.0,29.83,ESE,123,0.0,-999.0,98,-99.99,,,-99.99,,2013-10-07 13:22:00,
2013-10-07 09:32:00,59.0,58.0,29.83,ESE,123,0.0,-999.0,98,-99.99,,,-99.99,,2013-10-07 13:32:00,
2013-10-07 09:42:00,59.0,58.0,29.83,ESE,123,0.0,-999.0,98,-99.99,,,-99.99,,2013-10-07 13:42:00,
2013-10-07 09:52:00,59.0,58.0,29.85,ESE,123,0.0,-999.0,98,-99.99,,,-99.99,,2013-10-07 13:52:00,
2013-10-07 10:11:00,59.0,58.0,29.85,ESE,123,0.0,-999.0,98,-99.99,,,-99.99,,2013-10-07 14:11:00,
2013-10-07 10:22:00,59.0,58.0,29.86,SE,125,0.0,-999.0,97,-99.99,,,-99.99,,2013-10-07 14:22:00,
2013-10-07 10:32:00,59.0,58.0,29.86,SE,125,0.0,-999.0,97,-99.99,,,-99.99,,2013-10-07 14:32:00,
2013-10-07 10:43:00,59.0,58.0,29.86,SE,125,0.0,-999.0,97,-99.99,,,-99.99,,2013-10-07 14:43:00,
2013-10-07 10:52:00,60.0,59.0,29.86,SE,140,0.0,-999.0,97,-99.99,,,-99.99,,2013-10-07 14:52:00,
2013-10-07 11:01:00,60.0,59.0,29.86,SE,140,0.0,-999.0,97,-99.99,,,-99.99,,2013-10-07 15:01:00,
2013-10-07 11:22:00,61.0,60.0,29.87,SE,140,0.0,-999.0,97,-99.99,,,-99.99,,2013-10-07 15:22:00,
2013-10-07 11:33:00,61.0,60.0,29.87,SE,140,0.0,-999.0,97,-99.99,,,-99.99,,2013-10-07 15:33:00,
2013-10-07 11:43:00,61.0,60.0,29.87,SE,140,0.0,-999.0,97,-99.99,,,-99.99,,2013-10-07 15:43:00,
2013-10-07 11:53:00,60.0,59.0,29.87,SSW,202,1.0,-999.0,96,-99.99,,,-99.99,,2013-10-07 15:53:00,
2013-10-07 12:03:00,60.0,59.0,29.87,SSW,202,1.0,-999.0,96,-99.99,,,-99.99,,2013-10-07 16:03:00,
2013-10-07 12:23:00,61.0,59.0,29.87,SE,143,1.0,-999.0,92,-99.99,,,-99.99,,2013-10-07 16:23:00,
2013-10-07 12:32:00,61.0,59.0,29.87,SE,143,1.0,-999.0,92,-99.99,,,-99.99,,2013-10-07 16:32:00,
2013-10-07 12:53:00,62.0,52.0,29.88,South,172,0.0,-999.0,69,-99.99,,,-99.99,,2013-10-07 16:53:00,
2013-10-07 13:03:00,62.0,52.0,29.88,South,172,0.0,-999.0,69,-99.99,,,-99.99,,2013-10-07 17:03:00,
2013-10-07 13:22:00,61.0,55.0,29.88,SSE,151,0.0,-999.0,81,-99.99,,,-99.99,,2013-10-07 17:22:00,
2013-10-07 13:33:00,61.0,55.0,29.88,SSE,151,0.0,-999.0,81,-99.99,,,-99.99,,2013-10-07 17:33:00,
2013-10-07 13:53:00,64.0,54.0,29.88,SE,131,0.0,-999.0,71,-99.99,,,-99.99,,2013-10-07 17:53:00,
2013-10-07 14:02:00,64.0,54.0,29.88,SE,131,0.0,-999.0,71,-99.99,,,-99.99,,2013-10-07 18:02:00,
2013-10-07 14:22:00,64.0,54.0,29.88,SW,228,1.0,-999.0,71,-99.99,,,-99.99,,2013-10-07 18:22:00,
2013-10-07 14:32:00,64.0,54.0,29.88,SW,228,1.0,-999.0,71,-99.99,,,-99.99,,2013-10-07 18:32:00,
2013-10-07 14:52:00,66.0,54.0,29.88,SSE,158,1.0,-999.0,66,-99.99,,,-99.99,,2013-10-07 18:52:00,
2013-10-07 15:02:00,66.0,54.0,29.88,SSE,158,1.0,-999.0,66,-99.99,,,-99.99,,2013-10-07 19:02:00,
2013-10-07 15:22:00,66.0,56.0,29.87,NNE,12,1.0,-999.0,69,-99.99,,,-99.99,,2013-10-07 19:22:00,
2013-10-07 15:32:00,66.0,56.0,29.87,NNE,12,1.0,-999.0,69,-99.99,,,-99.99,,2013-10-07 19:32:00,
2013-10-07 15:42:00,66.0,56.0,29.87,NNE,12,1.0,-999.0,69,-99.99,,,-99.99,,2013-10-07 19:42:00,
2013-10-07 15:53:00,63.0,55.0,29.86,West,268,1.0,-999.0,74,-99.99,,,-99.99,,2013-10-07 19:53:00,
2013-10-07 16:02:00,63.0,55.0,29.86,West,268,1.0,-999.0,74,-99.99,,,-99.99,,2013-10-07 20:02:00,
2013-10-07 16:22:00,63.0,55.0,29.86,East,90,1.0,-999.0,76,-99.99,,,-99.99,,2013-10-07 20:22:00,
2013-10-07 16:33:00,63.0,55.0,29.86,East,90,1.0,-999.0,76,-99.99,,,-99.99,,2013-10-07 20:33:00,
2013-10-07 16:43:00,63.0,55.0,29.86,East,90,1.0,-999.0,76,-99.99,,,-99.99,,2013-10-07 20:43:00,
2013-10-07 16:52:00,62.0,54.0,29.87,ESE,121,1.0,-999.0,74,-99.99,,,-99.99,,2013-10-07 20:52:00,
2013-10-07 17:02:00,62.0,54.0,29.87,ESE,121,1.0,-999.0,74,-99.99,,,-99.99,,2013-10-07 21:02:00,
2013-10-07 17:23:00,62.0,54.0,29.87,South,176,0.0,-999.0,74,-99.99,,,-99.99,,2013-10-07 21:23:00,
2013-10-07 17:34:00,62.0,54.0,29.87,South,176,0.0,-999.0,74,-99.99,,,-99.99,,2013-10-07 21:34:00,
2013-10-07 17:43:00,62.0,54.0,29.87,South,176,0.0,-999.0,74,-99.99,,,-99.99,,2013-10-07 21:43:00,
2013-10-07 17:55:00,60.0,53.0,29.88,South,170,0.0,-999.0,78,-99.99,,,-99.99,,2013-10-07 21:55:00,
2013-10-07 18:04:00,60.0,53.0,29.88,South,170,0.0,-999.0,78,-99.99,,,-99.99,,2013-10-07 22:04:00,
2013-10-07 18:24:00,60.0,53.0,29.88,SSE,167,0.0,-999.0,77,-99.99,,,-99.99,,2013-10-07 22:24:00,
2013-10-07 18:33:00,60.0,53.0,29.88,SSE,167,0.0,-999.0,77,-99.99,,,-99.99,,2013-10-07 22:33:00,
2013-10-07 18:53:00,58.0,53.0,29.88,West,268,1.0,-999.0,82,-99.99,,,-99.99,,2013-10-07 22:53:00,
2013-10-07 19:02:00,58.0,53.0,29.88,West,268,1.0,-999.0,82,-99.99,,,-99.99,,2013-10-07 23:02:00,
2013-10-07 19:22:00,57.0,52.0,29.88,South,169,1.0,-999.0,82,-99.99,,,-99.99,,2013-10-07 23:22:00,
2013-10-07 19:33:00,57.0,52.0,29.88,South,169,1.0,-999.0,82,-99.99,,,-99.99,,2013-10-07 23:33:00,
2013-10-07 19:52:00,55.0,50.0,29.88,WNW,289,1.0,-999.0,83,-99.99,,,-99.99,,2013-10-07 23:52:00,
2013-10-07 20:02:00,55.0,50.0,29.88,WNW,289,1.0,-999.0,83,-99.99,,,-99.99,,2013-10-08 00:02:00,
2013-10-07 20:12:00,55.0,50.0,29.88,WNW,289,1.0,-999.0,83,-99.99,,,-99.99,,2013-10-08 00:12:00,
2013-10-07 20:22:00,54.0,49.0,29.89,SSW,208,2.0,-999.0,84,-99.99,,,-99.99,,2013-10-08 00:22:00,
2013-10-07 20:32:00,54.0,49.0,29.89,SSW,208,2.0,-999.0,84,-99.99,,,-99.99,,2013-10-08 00:32:00,
2013-10-07 20:52:00,54.0,49.0,29.89,SSW,209,2.0,-999.0,82,-99.99,,,-99.99,,2013-10-08 00:52:00,
2013-10-07 21:02:00,54.0,49.0,29.89,SSW,209,2.0,-999.0,82,-99.99,,,-99.99,,2013-10-08 01:02:00,
2013-10-07 21:12:00,54.0,49.0,29.89,SSW,209,2.0,-999.0,82,-99.99,,,-99.99,,2013-10-08 01:12:00,
2013-10-07 21:22:00,54.0,49.0,29.92,SW,231,1.0,-999.0,83,-99.99,,,-99.99,,2013-10-08 01:22:00,
2013-10-07 21:32:00,54.0,49.0,29.92,SW,231,1.0,-999.0,83,-99.99,,,-99.99,,2013-10-08 01:32:00,
2013-10-07 21:42:00,54.0,49.0,29.92,SW,231,1.0,-999.0,83,-99.99,,,-99.99,,2013-10-08 01:42:00,
2013-10-07 21:52:00,54.0,49.0,29.93,WNW,303,1.0,-999.0,82,-99.99,,,-99.99,,2013-10-08 01:52:00,
2013-10-07 22:03:00,54.0,49.0,29.93,WNW,303,1.0,-999.0,82,-99.99,,,-99.99,,2013-10-08 02:03:00,
2013-10-07 22:22:00,55.0,50.0,29.93,SW,220,1.0,-999.0,82,-99.99,,,-99.99,,2013-10-08 02:22:00,
2013-10-07 22:32:00,55.0,50.0,29.93,SW,220,1.0,-999.0,82,-99.99,,,-99.99,,2013-10-08 02:32:00,
2013-10-07 22:52:00,57.0,52.0,29.94,South,177,1.0,-999.0,83,-99.99,,,-99.99,,2013-10-08 02:52:00,
2013-10-07 23:02:00,57.0,52.0,29.94,South,177,1.0,-999.0,83,-99.99,,,-99.99,,2013-10-08 03:02:00,
2013-10-07 23:22:00,57.0,53.0,29.95,West,263,1.0,-999.0,85,-99.99,,,-99.99,,2013-10-08 03:22:00,
2013-10-07 23:34:00,57.0,53.0,29.95,West,263,1.0,-999.0,85,-99.99,,,-99.99,,2013-10-08 03:34:00,
2013-10-07 23:55:00,57.0,53.0,29.96,SE,136,2.0,-999.0,87,-99.99,,,-99.99,,2013-10-08 03:55:00,